Time;durP1;ratioP1;P1;durP2;ratioP2;P2;SDS_P1;SDS_P2;PMS_P1;PMS_P2;Temp;Humidity;BMP_temperature;BMP_pressure;BME280_temperature;BME280_humidity;BME280_pressure;Samples;Min_cycle;Max_cycle;Signal;HPM_P1;HPM_P2
2022/01/27 05:51:08;;;;;;;;;38.00;34.50;;;;;;;;6260026;22;46806;-94
2022/01/27 05:53:35;;;;;;;;;36.00;32.00;;;;;;;;6279695;22;45884;-91
2022/01/27 05:56:01;;;;;;;;;48.00;36.50;;;;;;;;6274128;22;45279;-92
2022/01/27 05:58:26;;;;;;;;;45.25;35.75;;;;;;;;6244203;22;45346;-92
2022/01/27 06:00:51;;;;;;;;;49.25;38.50;;;;;;;;6273186;22;45219;-95
2022/01/27 06:03:17;;;;;;;;;37.75;29.00;;;;;;;;6273622;22;45231;-95
2022/01/27 06:05:42;;;;;;;;;38.50;34.50;;;;;;;;6243821;22;45750;-95
2022/01/27 06:08:07;;;;;;;;;52.75;37.50;;;;;;;;6245583;22;45515;-95
2022/01/27 06:10:32;;;;;;;;;36.00;33.50;;;;;;;;6273170;22;45634;-96
2022/01/27 06:12:58;;;;;;;;;42.25;32.00;;;;;;;;6273583;22;45385;-96
2022/01/27 06:15:24;;;;;;;;;38.50;31.50;;;;;;;;6245975;22;45272;-96
2022/01/27 06:17:50;;;;;;;;;45.00;35.25;;;;;;;;6221502;22;45424;-95
2022/01/27 06:20:15;;;;;;;;;45.00;33.00;;;;;;;;6245905;22;45588;-96
2022/01/27 06:22:41;;;;;;;;;47.00;37.75;;;;;;;;6244084;22;46989;-89
2022/01/27 06:25:07;;;;;;;;;39.75;36.00;;;;;;;;6270235;22;45293;-90
2022/01/27 06:27:32;;;;;;;;;37.25;26.25;;;;;;;;6272671;22;45361;-90
2022/01/27 06:29:57;;;;;;;;;40.00;37.75;;;;;;;;6243506;22;45236;-89
2022/01/27 06:32:22;;;;;;;;;43.75;34.00;;;;;;;;6277961;22;45408;-89
2022/01/27 06:34:48;;;;;;;;;45.25;38.50;;;;;;;;6250007;22;46023;-89
2022/01/27 06:37:13;;;;;;;;;44.00;35.25;;;;;;;;6242578;22;45424;-89
2022/01/27 06:39:39;;;;;;;;;44.75;34.50;;;;;;;;6270691;22;45264;-90
2022/01/27 06:42:05;;;;;;;;;35.00;30.50;;;;;;;;6271015;22;45595;-90
2022/01/27 06:44:30;;;;;;;;;41.50;35.75;;;;;;;;6241558;22;45540;-90
2022/01/27 06:46:55;;;;;;;;;45.00;36.75;;;;;;;;6242373;22;45288;-89
2022/01/27 06:49:20;;;;;;;;;42.25;32.25;;;;;;;;6269492;22;45344;-90
2022/01/27 06:51:46;;;;;;;;;42.75;34.50;;;;;;;;6227901;22;48444;-89
2022/01/27 06:54:11;;;;;;;;;47.50;32.00;;;;;;;;6212399;22;45340;-90
2022/01/27 06:56:37;;;;;;;;;45.25;35.00;;;;;;;;6211333;22;45829;-90
2022/01/27 06:59:03;;;;;;;;;45.00;37.50;;;;;;;;6211998;22;45136;-90
2022/01/27 07:01:28;;;;;;;;;43.00;34.00;;;;;;;;6212043;22;47973;-90
2022/01/27 07:03:53;;;;;;;;;37.50;31.00;;;;;;;;6210745;22;45294;-90
2022/01/27 07:06:18;;;;;;;;;54.75;36.75;;;;;;;;6238696;22;45215;-89
2022/01/27 07:08:43;;;;;;;;;43.25;35.75;;;;;;;;6212047;22;45423;-89
2022/01/27 07:11:09;;;;;;;;;48.75;31.75;;;;;;;;6211513;22;48003;-89
2022/01/27 07:13:36;;;;;;;;;40.50;35.25;;;;;;;;6211650;22;45298;-89
2022/01/27 07:16:02;;;;;;;;;48.00;36.75;;;;;;;;6241478;22;45286;-88
2022/01/27 07:18:27;;;;;;;;;45.25;33.25;;;;;;;;6215004;22;45271;-88
2022/01/27 07:20:52;;;;;;;;;45.00;35.50;;;;;;;;6210753;22;48342;-89
2022/01/27 07:23:17;;;;;;;;;34.75;30.25;;;;;;;;6239799;22;45598;-89
2022/01/27 07:25:43;;;;;;;;;33.50;32.25;;;;;;;;6214146;22;45275;-89
2022/01/27 07:28:09;;;;;;;;;40.25;31.25;;;;;;;;6212769;22;45337;-89
2022/01/27 07:30:34;;;;;;;;;38.75;32.25;;;;;;;;6211366;22;46891;-88
2022/01/27 07:33:00;;;;;;;;;44.50;34.00;;;;;;;;6218877;22;45370;-88
2022/01/27 07:35:25;;;;;;;;;50.25;40.50;;;;;;;;6213393;22;45360;-88
2022/01/27 07:37:50;;;;;;;;;39.75;34.00;;;;;;;;6246115;22;45247;-87
2022/01/27 07:40:16;;;;;;;;;40.50;36.50;;;;;;;;6214563;22;46556;-89
2022/01/27 07:42:41;;;;;;;;;50.25;37.75;;;;;;;;6241494;22;45293;-88
2022/01/27 07:45:07;;;;;;;;;46.00;37.75;;;;;;;;6215078;22;45415;-87
2022/01/27 07:47:33;;;;;;;;;40.25;32.75;;;;;;;;6214051;22;45315;-88
2022/01/27 07:49:58;;;;;;;;;42.50;36.25;;;;;;;;6213274;22;48460;-88
2022/01/27 07:52:23;;;;;;;;;42.25;31.50;;;;;;;;6263257;22;45295;-88
2022/01/27 07:54:49;;;;;;;;;47.25;38.50;;;;;;;;6247843;22;45441;-88
2022/01/27 07:57:14;;;;;;;;;44.00;38.50;;;;;;;;6249798;22;45270;-87
2022/01/27 07:59:39;;;;;;;;;43.00;32.25;;;;;;;;6243282;22;47015;-89
2022/01/27 08:02:04;;;;;;;;;47.75;37.00;;;;;;;;6267724;22;45376;-89
2022/01/27 08:04:30;;;;;;;;;37.50;33.50;;;;;;;;6245576;22;45655;-89
2022/01/27 08:06:56;;;;;;;;;40.50;32.00;;;;;;;;6278028;22;45367;-89
2022/01/27 08:09:22;;;;;;;;;41.75;36.25;;;;;;;;6248029;22;47724;-88
2022/01/27 08:11:47;;;;;;;;;35.00;31.00;;;;;;;;6243114;22;45291;-88
2022/01/27 08:14:12;;;;;;;;;36.75;28.00;;;;;;;;6243039;22;45435;-89
2022/01/27 08:16:37;;;;;;;;;35.00;31.75;;;;;;;;6270690;22;45300;-88
2022/01/27 08:19:02;;;;;;;;;42.75;33.00;;;;;;;;6240301;22;48579;-88
2022/01/27 08:21:28;;;;;;;;;39.50;33.75;;;;;;;;6252113;22;45400;-87
2022/01/27 08:23:54;;;;;;;;;44.00;30.50;;;;;;;;6257840;22;45504;-89
2022/01/27 08:26:31;;;;;;;;;37.75;31.50;;;;;;;;6244756;22;45581;-89
2022/01/27 08:29:10;;;;;;;;;46.25;37.75;;;;;;;;6274796;22;45545;-90
2022/01/27 08:31:43;;;;;;;;;38.50;34.25;;;;;;;;6277598;22;45303;-88
2022/01/27 08:34:14;;;;;;;;;41.00;32.50;;;;;;;;6274490;22;45303;-88
2022/01/27 08:36:41;;;;;;;;;37.25;30.75;;;;;;;;6270977;22;45383;-89
2022/01/27 08:39:06;;;;;;;;;38.50;28.25;;;;;;;;6244295;22;48332;-89
2022/01/27 08:41:31;;;;;;;;;38.75;34.25;;;;;;;;6271410;22;45218;-89
2022/01/27 08:43:56;;;;;;;;;36.50;29.25;;;;;;;;6271352;22;45295;-89
2022/01/27 08:46:21;;;;;;;;;42.75;35.75;;;;;;;;6271257;22;45438;-89
2022/01/27 08:48:47;;;;;;;;;31.75;24.75;;;;;;;;6270492;22;45379;-89
2022/01/27 08:51:14;;;;;;;;;44.50;33.50;;;;;;;;6243469;22;45651;-88
2022/01/27 08:53:39;;;;;;;;;37.50;33.75;;;;;;;;6241358;22;45436;-88
2022/01/27 08:56:05;;;;;;;;;42.25;36.00;;;;;;;;6269451;22;45394;-91
2022/01/27 08:58:31;;;;;;;;;37.00;30.75;;;;;;;;6242088;22;47068;-89
2022/01/27 09:00:56;;;;;;;;;40.00;34.00;;;;;;;;6270220;22;45337;-91
2022/01/27 09:03:22;;;;;;;;;34.50;30.25;;;;;;;;6271319;22;45495;-94
2022/01/27 09:05:57;;;;;;;;;32.50;30.25;;;;;;;;6255920;22;45891;-96
2022/01/27 09:08:22;;;;;;;;;51.50;39.25;;;;;;;;6256396;22;47295;-95
2022/01/27 09:10:48;;;;;;;;;40.00;31.75;;;;;;;;6258272;22;45290;-93
2022/01/27 09:13:21;;;;;;;;;36.75;28.50;;;;;;;;6285283;22;45782;-94
2022/01/27 09:15:49;;;;;;;;;42.00;34.50;;;;;;;;6251135;22;45282;-93
2022/01/27 09:18:14;;;;;;;;;41.00;34.50;;;;;;;;6244480;22;47420;-94
2022/01/27 09:20:40;;;;;;;;;36.25;31.25;;;;;;;;6246124;22;45859;-94
2022/01/27 09:23:12;;;;;;;;;30.75;29.75;;;;;;;;6245581;22;45626;-94
2022/01/27 09:25:42;;;;;;;;;40.00;31.00;;;;;;;;6246887;22;45314;-94
2022/01/27 09:28:07;;;;;;;;;34.00;29.25;;;;;;;;6241959;22;47603;-94
2022/01/27 09:30:33;;;;;;;;;37.75;34.00;;;;;;;;6243560;22;45293;-94
2022/01/27 09:32:58;;;;;;;;;48.75;31.75;;;;;;;;6249520;22;45175;-95
2022/01/27 09:35:24;;;;;;;;;40.00;33.50;;;;;;;;6253437;22;45206;-94
2022/01/27 09:37:50;;;;;;;;;50.25;37.00;;;;;;;;6226684;22;47321;-93
2022/01/27 09:40:16;;;;;;;;;43.00;33.25;;;;;;;;6253252;22;45536;-93
2022/01/27 09:42:42;;;;;;;;;40.50;29.00;;;;;;;;6256776;22;45553;-93
2022/01/27 09:45:09;;;;;;;;;44.00;34.50;;;;;;;;6254805;22;45103;-94
2022/01/27 09:47:36;;;;;;;;;37.00;32.75;;;;;;;;6254970;22;47307;-95
2022/01/27 09:52:45;;;;;;;;;38.50;32.75;;;;;;;;6258165;22;45423;-94
2022/01/27 09:55:10;;;;;;;;;40.00;33.00;;;;;;;;6254987;22;45533;-94
2022/01/27 09:57:36;;;;;;;;;31.75;28.00;;;;;;;;6254520;22;47137;-94
2022/01/27 10:00:01;;;;;;;;;38.75;35.25;;;;;;;;6276249;22;45440;-94
2022/01/27 10:02:26;;;;;;;;;42.00;29.75;;;;;;;;6245205;22;45286;-93
2022/01/27 10:04:59;;;;;;;;;40.00;32.00;;;;;;;;6273201;22;45265;-94
2022/01/27 10:07:30;;;;;;;;;41.25;32.25;;;;;;;;6245932;22;48282;-91
2022/01/27 10:09:56;;;;;;;;;35.00;28.75;;;;;;;;6248771;22;45333;-93
2022/01/27 10:12:26;;;;;;;;;37.00;27.50;;;;;;;;6247883;22;45408;-93
2022/01/27 10:15:05;;;;;;;;;37.75;31.25;;;;;;;;6247523;22;45328;-93
2022/01/27 10:17:31;;;;;;;;;42.50;27.25;;;;;;;;6247772;22;48152;-93
2022/01/27 10:19:57;;;;;;;;;44.00;32.25;;;;;;;;6248808;22;45485;-93
2022/01/27 10:22:23;;;;;;;;;35.00;27.75;;;;;;;;6248159;22;45463;-93
2022/01/27 10:24:58;;;;;;;;;39.25;33.25;;;;;;;;6246083;22;45553;-93
2022/01/27 10:27:46;;;;;;;;;39.50;34.75;;;;;;;;6276836;22;45384;-93
2022/01/27 10:32:51;;;;;;;;;42.00;33.75;;;;;;;;6276435;22;45347;-95
2022/01/27 10:35:19;;;;;;;;;38.00;34.00;;;;;;;;6247609;22;45428;-93
2022/01/27 10:37:55;;;;;;;;;39.75;32.25;;;;;;;;6250429;22;47404;-93
2022/01/27 10:40:25;;;;;;;;;43.00;32.00;;;;;;;;6252886;22;45405;-93
2022/01/27 10:43:05;;;;;;;;;41.75;25.50;;;;;;;;6247955;22;45444;-93
2022/01/27 10:45:31;;;;;;;;;36.25;29.25;;;;;;;;6244984;22;45478;-92
2022/01/27 10:48:28;;;;;;;;;39.00;31.25;;;;;;;;6270738;22;45567;-90
2022/01/27 10:51:02;;;;;;;;;42.50;31.00;;;;;;;;6250310;22;45581;-92
2022/01/27 10:53:50;;;;;;;;;35.25;27.75;;;;;;;;6243947;22;45312;-93
2022/01/27 10:56:20;;;;;;;;;41.25;36.00;;;;;;;;6243168;22;45207;-94
2022/01/27 10:58:46;;;;;;;;;37.00;31.75;;;;;;;;6243162;22;47999;-93
2022/01/27 11:01:20;;;;;;;;;23.00;20.00;;;;;;;;6243236;22;45508;-94
2022/01/27 11:03:48;;;;;;;;;39.25;30.75;;;;;;;;6244570;22;45380;-94
2022/01/27 11:06:13;;;;;;;;;39.75;32.50;;;;;;;;6272847;22;45311;-94
2022/01/27 11:08:41;;;;;;;;;43.75;35.25;;;;;;;;6243288;22;47011;-95
2022/01/27 11:11:06;;;;;;;;;40.75;32.75;;;;;;;;6243367;22;45635;-95
2022/01/27 11:13:33;;;;;;;;;40.25;33.25;;;;;;;;6245830;22;45464;-92
2022/01/27 11:15:59;;;;;;;;;32.00;30.75;;;;;;;;6247555;22;45279;-90
2022/01/27 11:18:27;;;;;;;;;39.50;34.25;;;;;;;;6255480;22;47103;-94
2022/01/27 11:23:46;;;;;;;;;39.25;35.50;;;;;;;;6272894;22;45332;-92
2022/01/27 11:26:08;;;;;;;;;46.00;33.50;;;;;;;;6282834;22;45468;-93
2022/01/27 11:28:34;;;;;;;;;38.00;33.00;;;;;;;;6244183;22;47157;-90
2022/01/27 11:31:14;;;;;;;;;43.50;32.50;;;;;;;;6242281;22;45578;-89
2022/01/27 11:33:43;;;;;;;;;45.00;36.00;;;;;;;;6268936;22;45345;-93
2022/01/27 11:36:10;;;;;;;;;45.50;38.50;;;;;;;;6242905;22;45409;-91
2022/01/27 11:38:37;;;;;;;;;43.50;29.50;;;;;;;;6242219;22;47243;-96
2022/01/27 11:41:02;;;;;;;;;39.50;33.50;;;;;;;;6242779;22;45272;-92
2022/01/27 11:43:34;;;;;;;;;45.00;38.50;;;;;;;;6271566;22;45429;-93
2022/01/27 11:46:13;;;;;;;;;40.50;35.00;;;;;;;;6243348;22;45635;-90
2022/01/27 11:48:38;;;;;;;;;40.00;35.25;;;;;;;;6244864;22;47425;-92
2022/01/27 11:51:06;;;;;;;;;41.25;36.25;;;;;;;;6281189;22;45292;-91
2022/01/27 11:53:33;;;;;;;;;36.75;32.00;;;;;;;;6283573;22;45299;-91
2022/01/27 11:55:59;;;;;;;;;37.50;34.75;;;;;;;;6277235;22;45323;-94
2022/01/27 11:58:25;;;;;;;;;32.75;29.00;;;;;;;;6254944;22;47015;-91
2022/01/27 12:01:00;;;;;;;;;37.25;31.50;;;;;;;;6272381;22;45441;-89
2022/01/27 12:03:26;;;;;;;;;36.50;32.00;;;;;;;;6243107;22;45358;-91
2022/01/27 12:06:10;;;;;;;;;42.25;35.75;;;;;;;;6246594;22;45674;-92
2022/01/27 12:08:35;;;;;;;;;34.00;30.25;;;;;;;;6241864;22;47223;-92
2022/01/27 12:11:03;;;;;;;;;47.25;36.75;;;;;;;;6272972;22;45368;-94
2022/01/27 12:16:26;;;;;;;;;39.25;28.75;;;;;;;;6271019;22;45486;-90
2022/01/27 12:27:18;;;;;;;;;40.25;36.50;;;;;;;;6122300;23;45417;-93
2022/01/27 12:32:22;;;;;;;;;42.25;35.75;;;;;;;;6233813;22;45829;-87
2022/01/27 12:34:49;;;;;;;;;46.00;35.50;;;;;;;;6280140;22;45491;-92
2022/01/27 12:37:18;;;;;;;;;48.50;38.25;;;;;;;;6245131;22;45536;-90
2022/01/27 12:39:51;;;;;;;;;55.25;42.00;;;;;;;;6244013;22;46194;-89
2022/01/27 12:42:17;;;;;;;;;45.50;34.75;;;;;;;;6242791;22;45346;-88
2022/01/27 12:44:55;;;;;;;;;36.75;32.75;;;;;;;;6243142;22;45379;-90
2022/01/27 12:47:20;;;;;;;;;47.50;37.25;;;;;;;;6247122;22;45468;-90
2022/01/27 12:49:45;;;;;;;;;43.75;37.00;;;;;;;;6244361;22;47085;-90
2022/01/27 12:52:15;;;;;;;;;48.25;38.25;;;;;;;;6245035;22;45731;-90
2022/01/27 12:54:41;;;;;;;;;43.75;36.50;;;;;;;;6244032;22;45411;-90
2022/01/27 12:57:07;;;;;;;;;40.00;30.25;;;;;;;;6247896;22;45565;-90
2022/01/27 12:59:36;;;;;;;;;45.00;33.50;;;;;;;;6274946;22;45437;-89
2022/01/27 13:02:03;;;;;;;;;38.25;34.25;;;;;;;;6273265;22;45245;-90
2022/01/27 13:04:29;;;;;;;;;41.00;37.00;;;;;;;;6244081;22;45300;-89
2022/01/27 13:06:55;;;;;;;;;44.75;38.50;;;;;;;;6246270;22;45450;-89
2022/01/27 13:09:21;;;;;;;;;42.75;36.00;;;;;;;;6242424;22;48428;-89
2022/01/27 13:11:48;;;;;;;;;37.75;34.25;;;;;;;;6245520;22;45337;-90
2022/01/27 13:14:13;;;;;;;;;43.00;37.00;;;;;;;;6273445;22;45505;-89
2022/01/27 13:16:44;;;;;;;;;37.25;31.25;;;;;;;;6244642;22;45468;-88
2022/01/27 13:19:26;;;;;;;;;29.00;28.25;;;;;;;;6270185;22;45359;-90
2022/01/27 13:22:01;;;;;;;;;44.50;31.75;;;;;;;;6242292;22;45417;-89
2022/01/27 13:24:30;;;;;;;;;33.50;31.75;;;;;;;;6273289;22;45242;-89
2022/01/27 13:27:05;;;;;;;;;42.75;31.75;;;;;;;;6247937;22;45556;-89
2022/01/27 13:29:38;;;;;;;;;39.25;30.50;;;;;;;;6251482;22;47365;-89
2022/01/27 13:32:04;;;;;;;;;37.25;31.75;;;;;;;;6237426;22;45281;-89
2022/01/27 13:34:29;;;;;;;;;38.00;31.75;;;;;;;;6244673;22;45358;-89
2022/01/27 13:36:55;;;;;;;;;37.50;33.00;;;;;;;;6243924;22;45196;-89
2022/01/27 13:42:09;;;;;;;;;39.75;34.75;;;;;;;;6228811;22;45308;-88
2022/01/27 13:44:35;;;;;;;;;32.75;30.00;;;;;;;;6231477;22;45169;-88
2022/01/27 13:47:04;;;;;;;;;37.75;31.25;;;;;;;;6263998;22;45300;-89
2022/01/27 13:49:32;;;;;;;;;38.00;30.25;;;;;;;;6229514;22;47469;-89
2022/01/27 13:51:57;;;;;;;;;39.50;31.75;;;;;;;;6221750;22;45330;-89
2022/01/27 13:54:22;;;;;;;;;34.00;28.33;;;;;;;;6216087;22;45204;-89
2022/01/27 13:57:09;;;;;;;;;30.75;26.75;;;;;;;;6226889;22;45424;-89
2022/01/27 13:59:52;;;;;;;;;39.00;31.50;;;;;;;;6229560;22;48169;-89
2022/01/27 14:02:19;;;;;;;;;33.00;28.75;;;;;;;;6258129;22;45333;-90
2022/01/27 14:04:48;;;;;;;;;42.50;34.50;;;;;;;;6218570;22;45466;-89
2022/01/27 14:07:23;;;;;;;;;39.00;29.75;;;;;;;;6216690;22;44841;-89
2022/01/27 14:09:49;;;;;;;;;32.50;29.25;;;;;;;;6217395;22;47070;-89
2022/01/27 14:12:19;;;;;;;;;37.25;32.00;;;;;;;;6220290;22;45416;-89
2022/01/27 14:14:51;;;;;;;;;33.50;30.25;;;;;;;;6216747;22;45522;-89
2022/01/27 14:17:23;;;;;;;;;30.75;26.50;;;;;;;;6212797;22;45399;-89
2022/01/27 14:19:48;;;;;;;;;47.25;35.75;;;;;;;;6213534;22;46646;-89
2022/01/27 14:22:20;;;;;;;;;30.25;26.00;;;;;;;;6213780;22;45610;-89
2022/01/27 14:24:57;;;;;;;;;33.00;25.33;;;;;;;;6213152;22;45588;-89
2022/01/27 14:27:29;;;;;;;;;35.75;30.50;;;;;;;;6242230;22;45262;-89
2022/01/27 14:29:55;;;;;;;;;36.00;26.75;;;;;;;;6213394;22;46104;-89
2022/01/27 14:32:20;;;;;;;;;33.50;30.50;;;;;;;;6247135;22;45381;-89
2022/01/27 14:34:47;;;;;;;;;40.50;28.50;;;;;;;;6243971;22;45351;-89
2022/01/27 14:37:12;;;;;;;;;33.25;26.25;;;;;;;;6244202;22;45259;-88
2022/01/27 14:39:37;;;;;;;;;31.25;26.25;;;;;;;;6245198;22;47958;-89
2022/01/27 14:42:03;;;;;;;;;37.00;33.25;;;;;;;;6250639;22;45221;-89
2022/01/27 14:44:31;;;;;;;;;30.25;26.00;;;;;;;;6246250;22;45502;-89
2022/01/27 14:46:57;;;;;;;;;29.00;24.75;;;;;;;;6248571;22;45515;-89
2022/01/27 14:49:23;;;;;;;;;40.75;33.25;;;;;;;;6254535;22;47286;-89
2022/01/27 14:51:50;;;;;;;;;37.50;30.50;;;;;;;;6281063;22;45459;-90
2022/01/27 14:54:15;;;;;;;;;30.25;25.25;;;;;;;;6283571;22;44714;-90
2022/01/27 14:56:40;;;;;;;;;29.75;24.00;;;;;;;;6249434;22;45234;-89
2022/01/27 14:59:05;;;;;;;;;37.25;33.50;;;;;;;;6248187;22;46943;-90
2022/01/27 15:01:31;;;;;;;;;35.25;31.00;;;;;;;;6272875;22;45285;-90
2022/01/27 15:03:56;;;;;;;;;35.25;30.50;;;;;;;;6244515;22;45328;-90
2022/01/27 15:06:22;;;;;;;;;34.00;30.25;;;;;;;;6243787;22;45549;-89
2022/01/27 15:08:48;;;;;;;;;32.25;29.50;;;;;;;;6273932;22;46633;-89
2022/01/27 15:11:14;;;;;;;;;38.25;32.25;;;;;;;;6256432;22;45343;-90
2022/01/27 15:13:44;;;;;;;;;31.00;27.00;;;;;;;;6246660;22;45290;-90
2022/01/27 15:19:02;;;;;;;;;30.75;26.25;;;;;;;;6276015;22;46065;-91
2022/01/27 15:21:28;;;;;;;;;35.50;27.75;;;;;;;;6248364;22;46146;-92
2022/01/27 15:23:53;;;;;;;;;27.50;26.25;;;;;;;;6250264;22;45343;-89
2022/01/27 15:26:18;;;;;;;;;36.75;30.75;;;;;;;;6250515;22;45407;-88
2022/01/27 15:28:44;;;;;;;;;36.50;32.50;;;;;;;;6247705;22;47128;-91
2022/01/27 15:31:10;;;;;;;;;36.75;26.00;;;;;;;;6270332;22;45346;-91
2022/01/27 15:33:38;;;;;;;;;40.00;32.00;;;;;;;;6247084;22;45567;-92
2022/01/27 15:36:04;;;;;;;;;33.00;27.50;;;;;;;;6250136;22;45413;-89
2022/01/27 15:38:33;;;;;;;;;39.75;28.00;;;;;;;;6242932;22;47290;-90
2022/01/27 15:41:00;;;;;;;;;33.25;31.00;;;;;;;;6275130;22;44724;-89
2022/01/27 15:43:25;;;;;;;;;38.00;32.00;;;;;;;;6286687;22;45282;-89
2022/01/27 15:45:50;;;;;;;;;36.25;31.75;;;;;;;;6289639;22;45236;-90
2022/01/27 15:48:15;;;;;;;;;31.25;26.25;;;;;;;;6254874;22;46865;-90
2022/01/27 15:50:41;;;;;;;;;39.25;33.00;;;;;;;;6252498;22;45380;-89
2022/01/27 15:53:06;;;;;;;;;42.25;33.00;;;;;;;;6248803;22;45299;-89
2022/01/27 15:55:33;;;;;;;;;39.50;32.75;;;;;;;;6246082;22;45323;-89
2022/01/27 15:57:58;;;;;;;;;35.00;27.50;;;;;;;;6248991;22;47239;-89
2022/01/27 16:00:24;;;;;;;;;34.50;30.00;;;;;;;;6280087;22;45266;-90
2022/01/27 16:02:50;;;;;;;;;39.25;30.50;;;;;;;;6283665;22;45595;-89
2022/01/27 16:05:18;;;;;;;;;41.25;32.00;;;;;;;;6276038;22;45235;-89
2022/01/27 16:07:44;;;;;;;;;37.75;35.00;;;;;;;;6277664;22;46059;-89
2022/01/27 16:10:10;;;;;;;;;43.50;33.75;;;;;;;;6254132;22;45400;-89
2022/01/27 16:12:37;;;;;;;;;41.50;31.25;;;;;;;;6280566;22;44675;-89
2022/01/27 16:15:02;;;;;;;;;35.50;30.00;;;;;;;;6279420;22;45585;-89
2022/01/27 16:17:27;;;;;;;;;40.75;29.50;;;;;;;;6275692;22;45856;-89
2022/01/27 16:19:53;;;;;;;;;38.00;33.00;;;;;;;;6274185;22;45249;-89
2022/01/27 16:22:19;;;;;;;;;46.50;34.25;;;;;;;;6273704;22;45902;-90
2022/01/27 16:24:44;;;;;;;;;39.25;33.75;;;;;;;;6271439;22;45247;-90
2022/01/27 16:27:10;;;;;;;;;45.00;32.25;;;;;;;;6247684;22;45932;-90
2022/01/27 16:29:35;;;;;;;;;33.25;25.50;;;;;;;;6244216;22;45893;-89
2022/01/27 16:32:01;;;;;;;;;37.25;31.50;;;;;;;;6247256;22;45323;-89
2022/01/27 16:34:26;;;;;;;;;36.75;32.25;;;;;;;;6274442;22;45219;-89
2022/01/27 16:36:52;;;;;;;;;31.75;29.00;;;;;;;;6276822;22;45383;-90
2022/01/27 16:39:17;;;;;;;;;45.00;36.25;;;;;;;;6248820;22;45421;-89
2022/01/27 16:41:42;;;;;;;;;23.75;23.75;;;;;;;;6278073;22;45621;-90
2022/01/27 16:44:07;;;;;;;;;39.25;32.25;;;;;;;;6278423;22;45497;-89
2022/01/27 16:46:32;;;;;;;;;42.50;35.00;;;;;;;;6278911;22;46014;-88
2022/01/27 16:48:58;;;;;;;;;39.50;34.25;;;;;;;;6279380;22;45529;-90
2022/01/27 16:51:26;;;;;;;;;48.25;35.25;;;;;;;;6245488;22;45521;-91
2022/01/27 16:53:51;;;;;;;;;32.50;31.25;;;;;;;;6247699;22;45414;-90
2022/01/27 16:56:17;;;;;;;;;35.75;33.50;;;;;;;;6247468;22;46398;-89
2022/01/27 16:58:43;;;;;;;;;41.50;33.25;;;;;;;;6271180;22;45265;-89
2022/01/27 17:01:08;;;;;;;;;36.75;32.75;;;;;;;;6245684;22;45340;-88
2022/01/27 17:03:34;;;;;;;;;38.00;30.00;;;;;;;;6275234;22;45332;-88
2022/01/27 17:05:59;;;;;;;;;28.75;23.50;;;;;;;;6249807;22;48266;-89
2022/01/27 17:08:24;;;;;;;;;40.00;34.25;;;;;;;;6273742;22;45342;-90
2022/01/27 17:10:50;;;;;;;;;44.75;33.50;;;;;;;;6279700;22;45485;-89
2022/01/27 17:13:15;;;;;;;;;38.75;30.00;;;;;;;;6275785;22;45458;-90
2022/01/27 17:15:41;;;;;;;;;47.25;36.25;;;;;;;;6253202;22;47012;-89
2022/01/27 17:18:07;;;;;;;;;37.25;32.50;;;;;;;;6276862;22;45546;-89
2022/01/27 17:20:33;;;;;;;;;49.50;37.25;;;;;;;;6251932;22;45636;-89
2022/01/27 17:22:58;;;;;;;;;41.50;35.50;;;;;;;;6274169;22;45629;-89
2022/01/27 17:25:24;;;;;;;;;37.00;32.25;;;;;;;;6277190;22;45521;-89
2022/01/27 17:27:49;;;;;;;;;43.25;33.50;;;;;;;;6271572;22;45246;-89
2022/01/27 17:30:16;;;;;;;;;48.75;36.00;;;;;;;;6247036;22;45266;-90
2022/01/27 17:32:41;;;;;;;;;38.25;33.00;;;;;;;;6246886;22;45465;-90
2022/01/27 17:35:08;;;;;;;;;49.00;36.50;;;;;;;;6245383;22;47066;-89
2022/01/27 17:37:33;;;;;;;;;45.25;37.25;;;;;;;;6270027;22;45350;-89
2022/01/27 17:40:00;;;;;;;;;46.00;38.50;;;;;;;;6272820;22;45249;-89
2022/01/27 17:42:26;;;;;;;;;38.25;29.75;;;;;;;;6242627;22;45377;-90
2022/01/27 17:45:00;;;;;;;;;47.00;39.75;;;;;;;;6250886;22;47195;-89
2022/01/27 17:47:25;;;;;;;;;43.00;35.25;;;;;;;;6244894;22;45299;-89
2022/01/27 17:49:51;;;;;;;;;45.50;27.75;;;;;;;;6245422;22;45346;-88
2022/01/27 17:52:16;;;;;;;;;42.25;35.00;;;;;;;;6273893;22;45389;-90
2022/01/27 17:54:41;;;;;;;;;40.75;33.25;;;;;;;;6247469;22;46844;-89
2022/01/27 17:57:06;;;;;;;;;53.25;37.00;;;;;;;;6257159;22;45311;-89
2022/01/27 17:59:32;;;;;;;;;41.50;34.00;;;;;;;;6271750;22;45265;-89
2022/01/27 18:01:57;;;;;;;;;47.50;39.00;;;;;;;;6245297;22;45412;-94
2022/01/27 18:04:22;;;;;;;;;44.50;38.75;;;;;;;;6246667;22;47627;-92
2022/01/27 18:06:49;;;;;;;;;48.00;38.25;;;;;;;;6243943;22;45470;-90
2022/01/27 18:09:14;;;;;;;;;45.00;36.75;;;;;;;;6271174;22;45341;-90
2022/01/27 18:11:42;;;;;;;;;54.00;38.75;;;;;;;;6272563;22;45409;-90
2022/01/27 18:14:07;;;;;;;;;41.00;36.00;;;;;;;;6250686;22;47158;-90
2022/01/27 18:16:32;;;;;;;;;40.00;36.75;;;;;;;;6274817;22;45364;-89
2022/01/27 18:18:58;;;;;;;;;40.50;30.00;;;;;;;;6243092;22;45259;-89
2022/01/27 18:21:24;;;;;;;;;43.75;36.00;;;;;;;;6241752;22;45247;-90
2022/01/27 18:23:49;;;;;;;;;53.75;38.50;;;;;;;;6270274;22;46080;-90
2022/01/27 18:26:15;;;;;;;;;47.50;37.50;;;;;;;;6243445;22;45267;-90
2022/01/27 18:28:42;;;;;;;;;45.00;38.00;;;;;;;;6275761;22;45258;-89
2022/01/27 18:31:08;;;;;;;;;41.25;34.25;;;;;;;;6248661;22;45500;-89
2022/01/27 18:33:33;;;;;;;;;31.75;27.75;;;;;;;;6277992;22;46401;-90
2022/01/27 18:36:00;;;;;;;;;46.25;38.75;;;;;;;;6242045;22;45931;-89
2022/01/27 18:38:25;;;;;;;;;42.00;36.25;;;;;;;;6240556;22;45366;-88
2022/01/27 18:40:50;;;;;;;;;45.00;34.50;;;;;;;;6267389;22;45462;-89
2022/01/27 18:43:16;;;;;;;;;54.00;40.25;;;;;;;;6242609;22;47152;-90
2022/01/27 18:45:44;;;;;;;;;48.75;38.75;;;;;;;;6269870;22;45341;-89
2022/01/27 18:48:10;;;;;;;;;48.00;36.75;;;;;;;;6270980;22;45478;-89
2022/01/27 18:50:37;;;;;;;;;40.50;33.75;;;;;;;;6242041;22;45451;-89
2022/01/27 18:53:02;;;;;;;;;50.75;40.50;;;;;;;;6269040;22;46277;-90
2022/01/27 18:55:28;;;;;;;;;45.25;38.25;;;;;;;;6268325;22;45318;-90
2022/01/27 18:57:53;;;;;;;;;41.25;34.75;;;;;;;;6242836;22;45354;-89
2022/01/27 19:00:19;;;;;;;;;43.50;37.25;;;;;;;;6242552;22;45309;-89
2022/01/27 19:02:45;;;;;;;;;46.50;39.00;;;;;;;;6242451;22;47066;-89
2022/01/27 19:05:10;;;;;;;;;46.00;33.75;;;;;;;;6241426;22;45350;-88
2022/01/27 19:07:36;;;;;;;;;56.25;38.25;;;;;;;;6270179;22;45624;-88
2022/01/27 19:10:01;;;;;;;;;50.25;38.25;;;;;;;;6242838;22;45361;-89
2022/01/27 19:12:26;;;;;;;;;47.50;39.25;;;;;;;;6242134;22;48173;-91
2022/01/27 19:14:51;;;;;;;;;39.75;36.00;;;;;;;;6270933;22;45256;-91
2022/01/27 19:17:16;;;;;;;;;42.75;37.50;;;;;;;;6270750;22;45559;-90
2022/01/27 19:19:42;;;;;;;;;47.25;36.75;;;;;;;;6270365;22;45309;-90
2022/01/27 19:22:08;;;;;;;;;49.25;38.75;;;;;;;;6242016;22;48366;-90
2022/01/27 19:24:33;;;;;;;;;53.25;39.50;;;;;;;;6270524;22;45263;-89
2022/01/27 19:27:02;;;;;;;;;53.75;40.25;;;;;;;;6243220;22;45313;-88
2022/01/27 19:29:32;;;;;;;;;50.50;40.00;;;;;;;;6276846;22;45266;-91
2022/01/27 19:31:58;;;;;;;;;49.00;40.00;;;;;;;;6295854;22;44994;-90
2022/01/27 19:34:23;;;;;;;;;47.75;38.75;;;;;;;;6294921;22;45129;-91
2022/01/27 19:36:48;;;;;;;;;47.75;37.25;;;;;;;;6267745;22;45494;-89
2022/01/27 19:39:16;;;;;;;;;47.75;38.25;;;;;;;;6293877;22;44597;-90
2022/01/27 19:41:42;;;;;;;;;53.25;41.00;;;;;;;;6256336;22;46909;-90
2022/01/27 19:44:07;;;;;;;;;33.00;33.00;;;;;;;;6261234;22;45193;-90
2022/01/27 19:46:32;;;;;;;;;51.50;37.00;;;;;;;;6255441;22;45429;-88
2022/01/27 19:48:59;;;;;;;;;52.00;40.75;;;;;;;;6281021;22;45700;-88
2022/01/27 19:51:26;;;;;;;;;46.00;38.75;;;;;;;;6283648;22;45287;-91
2022/01/27 19:53:52;;;;;;;;;50.00;39.00;;;;;;;;6246525;22;45379;-88
2022/01/27 19:56:18;;;;;;;;;50.25;40.75;;;;;;;;6250712;22;45344;-90
2022/01/27 19:58:43;;;;;;;;;51.25;41.25;;;;;;;;6247491;22;45513;-89
2022/01/27 20:01:09;;;;;;;;;60.00;40.50;;;;;;;;6243764;22;47066;-91
2022/01/27 20:03:36;;;;;;;;;52.75;42.00;;;;;;;;6243684;22;45579;-87
2022/01/27 20:06:01;;;;;;;;;46.75;38.00;;;;;;;;6270254;22;45281;-88
2022/01/27 20:08:29;;;;;;;;;44.00;38.25;;;;;;;;6242489;22;45338;-89
2022/01/27 20:10:54;;;;;;;;;54.50;38.50;;;;;;;;6243810;22;48087;-90
2022/01/27 20:13:20;;;;;;;;;55.00;42.25;;;;;;;;6241198;22;45474;-91
2022/01/27 20:15:46;;;;;;;;;45.00;39.00;;;;;;;;6271063;22;45409;-89
2022/01/27 20:18:11;;;;;;;;;47.00;39.50;;;;;;;;6271012;22;45298;-88
2022/01/27 20:20:36;;;;;;;;;52.50;39.50;;;;;;;;6268123;22;45975;-89
2022/01/27 20:23:04;;;;;;;;;45.50;38.75;;;;;;;;6241774;22;45499;-89
2022/01/27 20:25:29;;;;;;;;;47.75;39.50;;;;;;;;6269715;22;45406;-88
2022/01/27 20:27:55;;;;;;;;;44.50;36.25;;;;;;;;6243696;22;45319;-88
2022/01/27 20:30:20;;;;;;;;;49.00;41.25;;;;;;;;6273771;22;45434;-88
2022/01/27 20:32:46;;;;;;;;;43.75;38.50;;;;;;;;6274146;22;45319;-90